Time;durP1;ratioP1;P1;durP2;ratioP2;P2;SDS_P1;SDS_P2;PMS_P1;PMS_P2;Temp;Humidity;BMP_temperature;BMP_pressure;BME280_temperature;BME280_humidity;BME280_pressure;Samples;Min_cycle;Max_cycle;Signal;HPM_P1;HPM_P2
2022/08/31 00:06:21;;;;;;;0.93;0.52;;;11.00;99.90;;;;;;4983238;28;20077;-49
2022/08/31 00:08:47;;;;;;;0.85;0.63;;;10.90;99.90;;;;;;4983402;28;20165;-49
2022/08/31 00:11:13;;;;;;;0.82;0.70;;;10.90;99.90;;;;;;4983789;28;20022;-49
2022/08/31 00:13:40;;;;;;;0.65;0.55;;;10.80;99.90;;;;;;4982834;28;20019;-49
2022/08/31 00:16:08;;;;;;;2.65;0.80;;;10.80;99.90;;;;;;4981857;28;20019;-52
2022/08/31 00:18:33;;;;;;;1.20;0.50;;;10.70;99.90;;;;;;4982687;28;20083;-49
2022/08/31 00:20:59;;;;;;;0.98;0.52;;;10.70;99.90;;;;;;4982428;28;20025;-48
2022/08/31 00:23:25;;;;;;;0.80;0.52;;;10.80;99.90;;;;;;4981662;28;20479;-47
2022/08/31 00:25:51;;;;;;;0.40;0.40;;;10.80;99.90;;;;;;4982886;28;20025;-49
2022/08/31 00:28:17;;;;;;;0.57;0.50;;;10.80;99.90;;;;;;4983806;28;20465;-50
2022/08/31 00:30:44;;;;;;;1.13;0.77;;;10.80;99.90;;;;;;4982353;28;20058;-49
2022/08/31 00:33:10;;;;;;;0.50;0.50;;;10.80;99.90;;;;;;4979684;28;20034;-49
2022/08/31 00:35:40;;;;;;;0.57;0.57;;;10.80;99.90;;;;;;4982336;28;20161;-51
2022/08/31 00:38:06;;;;;;;0.80;0.70;;;10.80;99.90;;;;;;4980682;28;20157;-49
2022/08/31 00:40:33;;;;;;;0.98;0.77;;;10.70;99.90;;;;;;4983668;28;20022;-49
2022/08/31 00:43:00;;;;;;;1.33;0.65;;;10.80;99.90;;;;;;4971577;28;20029;-49
2022/08/31 00:45:26;;;;;;;1.00;0.77;;;10.70;99.90;;;;;;4983240;28;20032;-50
2022/08/31 00:47:52;;;;;;;1.88;0.70;;;10.70;99.90;;;;;;4982831;28;20026;-50
2022/08/31 00:50:19;;;;;;;0.70;0.70;;;10.70;99.90;;;;;;4980555;28;20026;-48
2022/08/31 00:52:49;;;;;;;0.80;0.60;;;10.70;99.90;;;;;;4981839;28;20037;-49
2022/08/31 00:55:19;;;;;;;2.05;0.77;;;10.70;99.90;;;;;;4980878;28;20050;-53
2022/08/31 00:57:48;;;;;;;0.73;0.57;;;10.70;99.90;;;;;;4982747;28;20169;-49
2022/08/31 01:00:19;;;;;;;1.25;0.70;;;10.70;99.90;;;;;;4979013;28;20471;-48
2022/08/31 01:02:47;;;;;;;1.00;0.60;;;10.70;99.90;;;;;;4967358;28;20114;-49
2022/08/31 01:05:13;;;;;;;1.10;0.50;;;10.70;99.90;;;;;;4984275;28;20157;-47
2022/08/31 01:07:40;;;;;;;2.15;0.70;;;10.60;99.90;;;;;;4979585;28;20022;-52
2022/08/31 01:10:07;;;;;;;1.20;0.85;;;10.70;99.90;;;;;;4987032;28;20085;-49
2022/08/31 01:12:33;;;;;;;0.93;0.68;;;10.70;99.90;;;;;;4979110;28;20030;-48
2022/08/31 01:15:01;;;;;;;0.90;0.50;;;10.60;99.90;;;;;;4980292;28;20038;-47
2022/08/31 01:17:27;;;;;;;1.98;0.60;;;10.70;99.90;;;;;;4983332;28;20023;-47
2022/08/31 01:20:28;;;;;;;0.82;0.50;;;10.70;99.90;;;;;;4980155;28;20105;-51
2022/08/31 01:23:11;;;;;;;0.38;0.38;;;10.70;99.90;;;;;;4967559;28;20053;-50
2022/08/31 01:25:40;;;;;;;0.75;0.70;;;10.70;99.90;;;;;;4982729;28;20111;-48
2022/08/31 01:28:07;;;;;;;0.55;0.55;;;10.70;99.90;;;;;;4982198;28;20079;-47
2022/08/31 01:30:33;;;;;;;0.70;0.60;;;10.70;99.90;;;;;;4981577;28;20544;-47
2022/08/31 01:32:59;;;;;;;0.85;0.60;;;10.60;99.90;;;;;;4979158;28;20336;-51
2022/08/31 01:35:25;;;;;;;0.93;0.50;;;10.60;99.90;;;;;;4980979;28;20019;-47
2022/08/31 01:37:52;;;;;;;2.10;0.85;;;10.70;99.90;;;;;;4979537;28;20030;-47
2022/08/31 01:40:17;;;;;;;0.52;0.50;;;10.60;99.90;;;;;;4981177;28;20046;-48
2022/08/31 01:42:43;;;;;;;0.60;0.60;;;10.60;99.90;;;;;;4982164;28;20153;-49
2022/08/31 01:45:10;;;;;;;0.85;0.50;;;10.60;99.90;;;;;;4980275;28;20491;-50
2022/08/31 01:47:40;;;;;;;0.43;0.40;;;10.60;99.90;;;;;;4982404;28;20022;-48
2022/08/31 01:50:06;;;;;;;1.85;0.60;;;10.60;99.90;;;;;;4978375;28;20015;-48
2022/08/31 01:52:33;;;;;;;0.50;0.50;;;10.60;99.90;;;;;;4981562;28;20386;-47
2022/08/31 01:54:59;;;;;;;0.98;0.63;;;10.60;99.90;;;;;;4980477;28;20050;-47
2022/08/31 01:57:25;;;;;;;0.60;0.60;;;10.60;99.90;;;;;;4982411;28;20018;-50
2022/08/31 01:59:51;;;;;;;0.73;0.55;;;10.70;99.90;;;;;;4980169;28;20105;-48
2022/08/31 02:02:16;;;;;;;0.50;0.50;;;10.70;99.90;;;;;;4976245;28;20034;-50
2022/08/31 02:04:42;;;;;;;0.88;0.88;;;10.70;99.90;;;;;;4979745;28;20531;-47
2022/08/31 02:07:07;;;;;;;1.10;0.63;;;10.60;99.90;;;;;;4980017;28;20022;-48
2022/08/31 02:09:33;;;;;;;0.95;0.50;;;10.60;99.90;;;;;;4984379;28;20392;-51
2022/08/31 02:11:59;;;;;;;0.45;0.45;;;10.60;99.90;;;;;;4980609;28;20023;-47
2022/08/31 02:14:24;;;;;;;1.42;0.68;;;10.60;99.90;;;;;;4978360;28;20122;-49
2022/08/31 02:16:50;;;;;;;0.73;0.70;;;10.50;99.90;;;;;;4984619;28;20030;-47
2022/08/31 02:19:16;;;;;;;0.68;0.57;;;10.50;99.90;;;;;;4977214;28;20069;-50
2022/08/31 02:21:41;;;;;;;0.60;0.60;;;10.50;99.90;;;;;;4984030;28;20479;-49
2022/08/31 02:24:10;;;;;;;0.60;0.60;;;10.50;99.90;;;;;;4979256;28;20184;-48
2022/08/31 02:26:35;;;;;;;0.75;0.70;;;10.50;99.90;;;;;;4984382;28;20011;-48
2022/08/31 02:29:01;;;;;;;0.68;0.68;;;10.40;99.90;;;;;;4980273;28;20033;-51
2022/08/31 02:31:27;;;;;;;0.70;0.65;;;10.40;99.90;;;;;;4978261;28;20169;-47
2022/08/31 02:33:52;;;;;;;1.15;0.80;;;10.40;99.90;;;;;;4984394;28;20461;-48
2022/08/31 02:36:18;;;;;;;0.80;0.50;;;10.40;99.90;;;;;;4978342;28;20027;-52
2022/08/31 02:38:43;;;;;;;0.57;0.52;;;10.40;99.90;;;;;;4984707;28;20057;-48
2022/08/31 02:41:09;;;;;;;0.38;0.38;;;10.40;99.90;;;;;;4978759;28;20323;-48
2022/08/31 02:43:35;;;;;;;0.70;0.60;;;10.30;99.90;;;;;;4984222;28;20113;-51
2022/08/31 02:46:00;;;;;;;0.95;0.52;;;10.20;99.90;;;;;;4980524;28;20031;-52
2022/08/31 02:48:26;;;;;;;0.77;0.60;;;10.20;99.90;;;;;;4977117;28;20125;-46
2022/08/31 02:50:52;;;;;;;0.55;0.55;;;10.10;99.90;;;;;;4984219;28;20034;-47
2022/08/31 02:53:21;;;;;;;0.93;0.70;;;10.10;99.90;;;;;;4978093;28;20031;-49
2022/08/31 02:55:47;;;;;;;1.13;0.63;;;10.00;99.90;;;;;;4984670;28;20494;-51
2022/08/31 02:58:13;;;;;;;2.60;0.60;;;10.00;99.90;;;;;;4983018;28;20031;-51
2022/08/31 03:00:44;;;;;;;1.10;0.60;;;9.90;99.90;;;;;;4971197;28;20102;-51
2022/08/31 03:03:10;;;;;;;0.85;0.70;;;9.90;99.90;;;;;;4962437;28;20026;-50
2022/08/31 03:05:35;;;;;;;1.30;0.70;;;9.90;99.90;;;;;;4981057;28;20040;-50
2022/08/31 03:08:01;;;;;;;0.60;0.57;;;9.80;99.90;;;;;;4980664;28;20029;-47
2022/08/31 03:10:27;;;;;;;0.82;0.60;;;9.80;99.90;;;;;;4974999;28;20030;-53
2022/08/31 03:12:53;;;;;;;0.73;0.73;;;9.80;99.90;;;;;;4979590;28;20035;-51
2022/08/31 03:15:20;;;;;;;1.08;0.73;;;9.70;99.90;;;;;;4979276;28;20034;-49
2022/08/31 03:17:46;;;;;;;1.55;0.82;;;9.70;99.90;;;;;;4974718;28;20026;-50
2022/08/31 03:20:20;;;;;;;1.23;0.47;;;9.70;99.90;;;;;;4983429;28;20505;-48
2022/08/31 03:22:46;;;;;;;1.45;1.10;;;9.60;99.90;;;;;;4982685;28;20521;-53
2022/08/31 03:25:11;;;;;;;0.50;0.50;;;9.60;99.90;;;;;;4980403;28;20026;-48
2022/08/31 03:27:37;;;;;;;1.00;0.88;;;9.60;99.90;;;;;;4977368;28;20037;-47
2022/08/31 03:30:09;;;;;;;1.92;0.70;;;9.60;99.90;;;;;;4982170;28;20471;-47
2022/08/31 03:32:34;;;;;;;1.70;1.00;;;9.60;99.90;;;;;;4984247;28;20097;-52
2022/08/31 03:35:00;;;;;;;1.20;0.80;;;9.60;99.90;;;;;;4982374;28;20023;-48
2022/08/31 03:37:27;;;;;;;1.98;0.93;;;9.60;99.90;;;;;;4980772;28;20091;-48
2022/08/31 03:39:53;;;;;;;1.00;0.90;;;9.60;99.90;;;;;;4976480;28;20065;-50
2022/08/31 03:42:19;;;;;;;0.50;0.50;;;9.60;99.90;;;;;;4980671;28;20514;-48
2022/08/31 03:44:45;;;;;;;1.05;0.90;;;9.60;99.90;;;;;;4982997;28;20022;-49
2022/08/31 03:47:11;;;;;;;1.00;0.80;;;9.50;99.90;;;;;;4979762;28;20474;-47
2022/08/31 03:49:37;;;;;;;0.90;0.70;;;9.50;99.90;;;;;;4984469;28;20049;-48
2022/08/31 03:52:03;;;;;;;0.80;0.60;;;9.50;99.90;;;;;;4980837;28;20018;-49
2022/08/31 03:54:29;;;;;;;0.60;0.60;;;9.50;99.90;;;;;;4984350;28;20113;-49
2022/08/31 03:56:54;;;;;;;0.60;0.60;;;9.50;99.90;;;;;;4983415;28;20362;-52
2022/08/31 03:59:20;;;;;;;1.13;0.70;;;9.50;99.90;;;;;;4984489;28;20429;-50
2022/08/31 04:01:46;;;;;;;1.00;0.80;;;9.50;99.90;;;;;;4982586;28;20660;-47
2022/08/31 04:04:12;;;;;;;1.40;1.00;;;9.60;99.90;;;;;;4981114;28;20046;-48
2022/08/31 04:06:43;;;;;;;1.73;1.30;;;9.50;99.90;;;;;;4983605;28;20034;-50
2022/08/31 04:09:10;;;;;;;1.00;0.90;;;9.50;99.90;;;;;;4982356;28;20034;-50
2022/08/31 04:11:39;;;;;;;1.00;0.85;;;9.50;99.90;;;;;;4980628;28;20027;-49
2022/08/31 04:14:05;;;;;;;2.97;0.82;;;9.40;99.90;;;;;;4973669;28;20109;-50
2022/08/31 04:16:32;;;;;;;1.02;0.80;;;9.40;99.90;;;;;;4978067;28;20140;-47
2022/08/31 04:18:58;;;;;;;3.85;1.10;;;9.40;99.90;;;;;;4982305;28;20099;-51
2022/08/31 04:21:27;;;;;;;1.70;1.17;;;9.40;99.90;;;;;;4981995;28;20018;-48
2022/08/31 04:23:53;;;;;;;0.98;0.90;;;9.40;99.90;;;;;;4982801;28;20033;-49
2022/08/31 04:26:20;;;;;;;1.10;1.00;;;9.40;99.90;;;;;;4983691;28;20027;-51
2022/08/31 04:28:47;;;;;;;2.83;1.02;;;9.40;99.90;;;;;;4982383;28;20022;-51
2022/08/31 04:31:13;;;;;;;1.55;1.00;;;9.40;99.90;;;;;;4979965;28;20030;-48
2022/08/31 04:33:39;;;;;;;1.40;1.15;;;9.40;99.90;;;;;;4983655;28;20030;-47
2022/08/31 04:36:11;;;;;;;1.58;1.30;;;9.40;99.90;;;;;;4981514;28;20034;-50
2022/08/31 04:38:37;;;;;;;1.50;1.20;;;9.40;99.90;;;;;;4985727;28;20482;-47
2022/08/31 04:41:08;;;;;;;2.58;1.40;;;9.40;99.90;;;;;;4981462;28;20030;-48
2022/08/31 04:43:35;;;;;;;1.35;1.25;;;9.50;99.90;;;;;;4978842;28;20032;-49
2022/08/31 04:46:03;;;;;;;1.60;0.98;;;9.50;99.90;;;;;;4981875;28;20018;-48
2022/08/31 04:48:28;;;;;;;0.80;0.80;;;9.50;99.90;;;;;;4979887;28;20411;-51
2022/08/31 04:51:07;;;;;;;1.20;1.10;;;9.50;99.90;;;;;;4986038;28;20025;-50
2022/08/31 04:53:35;;;;;;;2.72;1.08;;;9.50;99.90;;;;;;4979420;28;20077;-48
2022/08/31 04:56:13;;;;;;;2.28;1.50;;;9.50;99.90;;;;;;4979774;28;20043;-50
2022/08/31 04:58:49;;;;;;;1.02;0.95;;;9.60;99.90;;;;;;4983515;28;20041;-48
2022/08/31 05:01:19;;;;;;;2.85;1.70;;;9.60;99.90;;;;;;4968016;28;20025;-47
2022/08/31 05:03:49;;;;;;;5.22;2.17;;;9.70;99.90;;;;;;4983252;28;20484;-49
2022/08/31 05:06:16;;;;;;;2.10;1.45;;;9.70;99.90;;;;;;4969467;28;20217;-52
2022/08/31 05:08:43;;;;;;;1.92;1.55;;;9.70;99.90;;;;;;4982099;28;20025;-48
2022/08/31 05:11:16;;;;;;;1.20;1.10;;;9.70;99.90;;;;;;4979247;28;20102;-48
2022/08/31 05:13:42;;;;;;;2.70;1.35;;;9.70;99.90;;;;;;4977927;28;20026;-49
2022/08/31 05:16:10;;;;;;;3.13;2.08;;;9.70;99.90;;;;;;4972969;28;20031;-48
2022/08/31 05:18:38;;;;;;;4.03;1.88;;;9.80;99.90;;;;;;4982892;28;20069;-47
2022/08/31 05:21:12;;;;;;;2.63;1.80;;;9.80;99.90;;;;;;4981429;28;20027;-51
2022/08/31 05:23:39;;;;;;;7.13;1.75;;;9.80;99.90;;;;;;4981061;28;20037;-52
2022/08/31 05:26:05;;;;;;;3.13;1.90;;;9.90;99.90;;;;;;4981199;28;20032;-48
2022/08/31 05:28:32;;;;;;;2.60;1.83;;;9.90;99.90;;;;;;4982633;28;20015;-50
2022/08/31 05:30:58;;;;;;;2.10;1.73;;;10.00;99.90;;;;;;4980887;28;20049;-47
2022/08/31 05:33:25;;;;;;;7.78;2.22;;;10.00;99.90;;;;;;4981720;28;20030;-48
2022/08/31 05:35:50;;;;;;;1.85;1.75;;;10.10;99.90;;;;;;4980821;28;20033;-49
2022/08/31 05:38:16;;;;;;;5.55;1.90;;;10.20;99.90;;;;;;4981622;28;20026;-47
2022/08/31 05:40:41;;;;;;;3.10;2.20;;;10.20;99.90;;;;;;4982445;28;20084;-49
2022/08/31 05:43:07;;;;;;;4.70;1.52;;;10.30;99.90;;;;;;4981521;28;20035;-48
2022/08/31 05:45:32;;;;;;;2.97;2.00;;;10.30;99.90;;;;;;4980741;28;20022;-47
2022/08/31 05:47:58;;;;;;;7.07;1.75;;;10.40;99.90;;;;;;4981007;28;20650;-49
2022/08/31 05:50:24;;;;;;;4.40;1.40;;;10.50;99.90;;;;;;4981948;28;20024;-50
2022/08/31 05:52:49;;;;;;;2.22;1.50;;;10.50;99.90;;;;;;4982051;28;20097;-48
2022/08/31 05:55:15;;;;;;;3.88;2.15;;;10.60;99.90;;;;;;4979699;28;20026;-50
2022/08/31 05:57:41;;;;;;;5.35;1.63;;;10.70;99.90;;;;;;5024713;23;20038;-58
2022/08/31 06:00:08;;;;;;;3.85;1.73;;;10.80;99.90;;;;;;4987834;28;20019;-56
2022/08/31 06:02:35;;;;;;;3.63;2.08;;;10.90;99.90;;;;;;4984473;28;20042;-56
2022/08/31 06:05:01;;;;;;;5.50;1.90;;;10.90;99.90;;;;;;4986103;28;20021;-58
2022/08/31 06:07:27;;;;;;;2.33;1.58;;;11.00;99.90;;;;;;4988045;28;20018;-57
2022/08/31 06:09:52;;;;;;;3.78;2.20;;;11.10;99.90;;;;;;4981485;28;20034;-58
2022/08/31 06:12:18;;;;;;;4.15;1.38;;;11.20;99.90;;;;;;4974689;28;20085;-54
2022/08/31 06:14:44;;;;;;;3.28;2.13;;;11.20;99.90;;;;;;4967936;28;20030;-57
2022/08/31 06:17:10;;;;;;;4.90;1.50;;;11.30;99.90;;;;;;4983977;28;20105;-57
2022/08/31 06:19:37;;;;;;;4.03;2.10;;;11.40;99.90;;;;;;4978598;28;20023;-57
2022/08/31 06:22:03;;;;;;;4.13;2.10;;;11.50;99.90;;;;;;4984871;28;20026;-55
2022/08/31 06:24:29;;;;;;;6.65;1.35;;;11.60;99.90;;;;;;4976749;28;20043;-55
2022/08/31 06:26:56;;;;;;;4.05;1.45;;;11.70;99.90;;;;;;4986247;28;20069;-57
2022/08/31 06:29:22;;;;;;;2.58;1.23;;;11.80;99.90;;;;;;4978470;28;20402;-56
2022/08/31 06:31:47;;;;;;;2.72;1.55;;;11.90;99.90;;;;;;4978413;28;20118;-58
2022/08/31 06:34:15;;;;;;;1.38;1.13;;;12.10;99.90;;;;;;4983285;28;20054;-57
2022/08/31 06:36:40;;;;;;;2.65;1.30;;;12.30;99.90;;;;;;4974694;28;20118;-56
2022/08/31 06:39:06;;;;;;;4.18;1.50;;;12.40;99.90;;;;;;4989072;28;20561;-60
2022/08/31 06:41:34;;;;;;;3.53;1.50;;;12.60;99.90;;;;;;4981771;28;20518;-54
2022/08/31 06:44:00;;;;;;;1.60;1.00;;;12.70;99.90;;;;;;4989811;28;20490;-56
2022/08/31 06:46:27;;;;;;;1.20;1.10;;;12.90;99.90;;;;;;4982142;28;20019;-56
2022/08/31 06:48:56;;;;;;;3.90;1.17;;;13.00;99.90;;;;;;4982764;28;20388;-56
2022/08/31 06:51:23;;;;;;;1.73;1.08;;;13.20;99.90;;;;;;4986422;28;20507;-57
2022/08/31 06:53:50;;;;;;;2.33;0.95;;;13.40;99.90;;;;;;4982267;28;20035;-58
2022/08/31 06:56:22;;;;;;;1.02;0.57;;;13.50;99.90;;;;;;4988986;28;20090;-58
2022/08/31 06:58:49;;;;;;;10.02;1.08;;;13.70;99.90;;;;;;4978365;28;20035;-57
2022/08/31 07:01:21;;;;;;;2.88;0.95;;;13.90;99.90;;;;;;4974476;28;20050;-58
2022/08/31 07:03:48;;;;;;;0.82;0.70;;;14.00;99.90;;;;;;4982550;28;20062;-57
2022/08/31 07:06:39;;;;;;;1.42;0.68;;;14.20;99.90;;;;;;4983909;28;20049;-58
2022/08/31 07:09:08;;;;;;;0.82;0.70;;;14.40;99.90;;;;;;4979107;28;20035;-57
2022/08/31 07:11:40;;;;;;;2.30;0.50;;;14.60;99.90;;;;;;4987110;28;20050;-58
2022/08/31 07:14:11;;;;;;;3.08;0.98;;;14.80;99.90;;;;;;4975003;28;20151;-58
2022/08/31 07:16:37;;;;;;;0.90;0.50;;;14.90;99.90;;;;;;4980769;28;20483;-56
2022/08/31 07:19:05;;;;;;;3.13;0.50;;;15.20;99.90;;;;;;4982768;28;20029;-59
2022/08/31 07:21:34;;;;;;;1.40;0.40;;;15.40;99.90;;;;;;4985257;28;20133;-58
2022/08/31 07:24:04;;;;;;;0.28;0.28;;;15.70;99.90;;;;;;4982144;28;20153;-58
2022/08/31 07:26:52;;;;;;;0.20;0.20;;;15.90;99.90;;;;;;4984880;28;20015;-60
2022/08/31 07:29:19;;;;;;;1.20;0.60;;;16.20;99.90;;;;;;4979323;28;20523;-59
2022/08/31 07:31:46;;;;;;;4.65;0.50;;;16.40;99.90;;;;;;4984343;28;20014;-57
2022/08/31 07:34:20;;;;;;;0.77;0.75;;;16.60;99.90;;;;;;4981393;28;20031;-58
2022/08/31 07:42:23;;;;;;;0.80;0.47;;;17.30;99.90;;;;;;4969058;28;20121;-59
2022/08/31 07:44:51;;;;;;;0.60;0.57;;;17.50;99.90;;;;;;4981841;28;20033;-61
2022/08/31 07:47:19;;;;;;;0.70;0.28;;;17.70;99.90;;;;;;4970034;28;20397;-58
2022/08/31 07:49:50;;;;;;;1.38;0.43;;;17.90;99.90;;;;;;4982215;28;20023;-58
2022/08/31 07:52:24;;;;;;;1.65;0.73;;;18.10;99.90;;;;;;4969876;28;20498;-60
2022/08/31 07:54:52;;;;;;;0.75;0.40;;;18.30;99.90;;;;;;4982729;28;20031;-61
2022/08/31 07:57:21;;;;;;;1.10;0.45;;;18.40;99.90;;;;;;4983815;28;20038;-59
2022/08/31 07:59:53;;;;;;;0.90;0.40;;;18.50;99.90;;;;;;4981998;28;20073;-60
2022/08/31 08:02:20;;;;;;;0.32;0.30;;;18.70;99.90;;;;;;4972230;28;20018;-59
2022/08/31 08:04:49;;;;;;;2.78;0.52;;;18.80;99.90;;;;;;4981551;28;20018;-59
2022/08/31 08:07:16;;;;;;;0.30;0.30;;;19.00;99.90;;;;;;4972351;28;20315;-58
2022/08/31 08:09:41;;;;;;;0.40;0.40;;;19.10;99.90;;;;;;4984407;28;20018;-59
2022/08/31 08:12:07;;;;;;;1.60;0.60;;;19.30;99.90;;;;;;4978239;28;20106;-59
2022/08/31 08:14:36;;;;;;;0.88;0.60;;;19.40;99.90;;;;;;4969231;28;20093;-56
2022/08/31 08:17:06;;;;;;;0.90;0.40;;;19.60;99.90;;;;;;4983877;28;20035;-58
2022/08/31 08:19:34;;;;;;;0.63;0.50;;;19.70;99.90;;;;;;4979971;28;20107;-58
2022/08/31 08:22:02;;;;;;;1.40;0.57;;;19.80;99.90;;;;;;4986861;28;20821;-57
2022/08/31 08:24:31;;;;;;;0.40;0.40;;;20.00;99.90;;;;;;4979942;28;20539;-61
2022/08/31 08:26:57;;;;;;;1.52;0.60;;;20.00;99.90;;;;;;4988029;28;20109;-60
2022/08/31 08:29:23;;;;;;;0.40;0.40;;;20.10;99.90;;;;;;4980385;28;20090;-60
2022/08/31 08:31:53;;;;;;;0.88;0.40;;;20.00;99.90;;;;;;4980057;28;20118;-60
2022/08/31 08:34:23;;;;;;;0.50;0.30;;;20.00;99.90;;;;;;4974669;28;20026;-58
2022/08/31 08:36:49;;;;;;;1.92;0.60;;;20.20;99.90;;;;;;4980210;28;20031;-57
2022/08/31 08:39:17;;;;;;;6.05;0.98;;;20.10;99.90;;;;;;4980210;28;20058;-57
2022/08/31 08:41:44;;;;;;;1.50;0.47;;;20.10;99.90;;;;;;4979461;28;20103;-58
2022/08/31 08:44:13;;;;;;;0.30;0.30;;;20.20;99.90;;;;;;4987795;28;20022;-58
2022/08/31 08:46:42;;;;;;;0.65;0.50;;;20.20;99.90;;;;;;4980109;28;20388;-59
2022/08/31 08:49:36;;;;;;;1.65;0.30;;;20.20;99.90;;;;;;4982554;28;20035;-57
2022/08/31 08:52:11;;;;;;;0.50;0.28;;;20.10;99.90;;;;;;4979406;28;20038;-59
2022/08/31 08:54:43;;;;;;;0.97;0.40;;;20.00;99.90;;;;;;4982870;28;20019;-58
2022/08/31 08:57:13;;;;;;;2.00;0.50;;;19.90;99.90;;;;;;4981483;28;20495;-53
2022/08/31 08:59:45;;;;;;;0.93;0.30;;;19.80;99.90;;;;;;4982910;28;20038;-60
2022/08/31 09:02:20;;;;;;;2.30;0.55;;;19.90;99.90;;;;;;4980520;28;20026;-59
2022/08/31 09:05:03;;;;;;;2.60;0.52;;;20.00;99.90;;;;;;4982839;28;20097;-58
2022/08/31 09:07:35;;;;;;;0.60;0.50;;;20.00;99.90;;;;;;4976728;28;20025;-59
2022/08/31 09:10:04;;;;;;;4.00;0.80;;;20.00;99.90;;;;;;4981296;28;20446;-56
2022/08/31 09:12:56;;;;;;;1.17;0.65;;;20.20;99.90;;;;;;4973525;28;20035;-57
2022/08/31 09:15:25;;;;;;;1.00;0.63;;;20.10;99.90;;;;;;4961973;28;20449;-59
2022/08/31 09:18:25;;;;;;;0.90;0.43;;;19.90;99.90;;;;;;4980555;28;20022;-59
2022/08/31 09:21:24;;;;;;;1.98;0.98;;;19.90;99.90;;;;;;4981503;28;20034;-59
2022/08/31 09:24:02;;;;;;;2.78;0.90;;;19.90;99.90;;;;;;4970393;28;20208;-59
2022/08/31 09:26:45;;;;;;;0.40;0.40;;;19.90;99.90;;;;;;4982445;28;20076;-58
2022/08/31 09:29:27;;;;;;;0.77;0.60;;;19.90;99.30;;;;;;4979889;28;20102;-60
2022/08/31 09:32:08;;;;;;;0.63;0.40;;;20.00;98.80;;;;;;4979645;28;20030;-58
2022/08/31 09:34:37;;;;;;;0.30;0.30;;;20.00;98.40;;;;;;4983080;28;20418;-56
2022/08/31 09:37:24;;;;;;;1.30;0.70;;;19.90;98.70;;;;;;4981138;28;20019;-56
2022/08/31 09:39:52;;;;;;;0.38;0.35;;;20.10;97.70;;;;;;4981458;28;20026;-55
2022/08/31 09:42:31;;;;;;;1.38;0.50;;;20.10;97.30;;;;;;4981937;28;20134;-58
2022/08/31 09:45:03;;;;;;;0.95;0.60;;;20.00;97.30;;;;;;4982116;28;20031;-60
2022/08/31 09:47:54;;;;;;;0.38;0.30;;;19.90;97.50;;;;;;4982215;28;20019;-57
2022/08/31 09:50:32;;;;;;;1.13;0.60;;;19.90;97.40;;;;;;4974187;28;20064;-59
2022/08/31 09:56:14;;;;;;;0.77;0.50;;;20.00;98.10;;;;;;4983554;28;20050;-55
2022/08/31 09:59:03;;;;;;;0.50;0.50;;;20.00;97.90;;;;;;4978700;28;20410;-57
2022/08/31 10:01:41;;;;;;;0.25;0.25;;;20.00;97.00;;;;;;4973300;28;20076;-56
2022/08/31 10:04:16;;;;;;;0.52;0.40;;;20.00;97.10;;;;;;4980756;28;20046;-58
2022/08/31 10:06:45;;;;;;;1.60;0.50;;;20.00;96.80;;;;;;4980886;28;20018;-58
2022/08/31 10:09:52;;;;;;;1.75;0.32;;;20.10;96.80;;;;;;4981721;28;20069;-60
2022/08/31 10:12:25;;;;;;;2.25;0.50;;;20.20;96.60;;;;;;4969275;28;20035;-59
2022/08/31 10:15:08;;;;;;;0.40;0.25;;;20.30;95.90;;;;;;4976357;28;20447;-58
2022/08/31 10:17:54;;;;;;;0.98;0.40;;;20.30;95.60;;;;;;4981693;28;20391;-58
2022/08/31 10:20:25;;;;;;;0.60;0.50;;;20.40;95.30;;;;;;4968782;28;20026;-59
2022/08/31 10:22:57;;;;;;;1.00;0.40;;;20.50;93.30;;;;;;4979621;28;20027;-59
2022/08/31 10:25:34;;;;;;;0.45;0.35;;;20.70;91.50;;;;;;4982345;28;20030;-61
2022/08/31 10:28:10;;;;;;;0.40;0.25;;;20.70;91.70;;;;;;4981385;28;20011;-58
2022/08/31 10:31:00;;;;;;;4.28;0.50;;;20.80;93.00;;;;;;4981971;28;20076;-59
2022/08/31 10:35:03;;;;;;;0.55;0.40;;;20.80;93.70;;;;;;4975286;28;20030;-60
2022/08/31 10:36:24;;;;;;;0.75;0.30;;;20.80;94.00;;;;;;4975429;28;20051;-56
2022/08/31 10:38:53;;;;;;;0.40;0.40;;;20.80;94.50;;;;;;4985471;28;20385;-57
2022/08/31 10:41:29;;;;;;;0.55;0.50;;;20.80;92.90;;;;;;4977046;28;20018;-59
2022/08/31 10:44:22;;;;;;;0.47;0.40;;;20.90;91.80;;;;;;4985935;28;20112;-59
2022/08/31 10:46:53;;;;;;;1.08;0.77;;;20.90;92.00;;;;;;4978396;28;20027;-59
2022/08/31 10:49:20;;;;;;;0.60;0.60;;;20.90;92.30;;;;;;4963788;28;20395;-56
2022/08/31 10:51:58;;;;;;;0.82;0.40;;;20.90;91.30;;;;;;4978012;28;20102;-57
2022/08/31 10:54:27;;;;;;;0.50;0.40;;;20.80;90.80;;;;;;4969180;28;20018;-58
2022/08/31 10:57:11;;;;;;;0.40;0.40;;;20.80;90.90;;;;;;4979982;28;20019;-57
2022/08/31 10:59:47;;;;;;;1.88;0.50;;;20.90;90.90;;;;;;4981404;28;20103;-58
2022/08/31 11:02:31;;;;;;;;;;;20.90;90.80;;;;;;4980920;28;20390;-57
2022/08/31 11:05:09;;;;;;;0.90;0.40;;;21.00;90.80;;;;;;4980183;28;20512;-57
2022/08/31 11:07:34;;;;;;;1.48;0.63;;;21.10;90.60;;;;;;4982531;28;20015;-58
2022/08/31 11:10:12;;;;;;;0.57;0.38;;;21.20;89.50;;;;;;4979927;28;20053;-59
2022/08/31 11:12:43;;;;;;;0.70;0.52;;;21.10;90.30;;;;;;4971066;28;20499;-57
2022/08/31 11:15:46;;;;;;;0.28;0.28;;;21.20;90.00;;;;;;4972436;28;20406;-59
2022/08/31 11:18:38;;;;;;;0.50;0.40;;;21.20;90.00;;;;;;4979347;28;20077;-57
2022/08/31 11:21:27;;;;;;;0.47;0.40;;;21.10;89.60;;;;;;4986640;28;20405;-59
2022/08/31 11:24:05;;;;;;;0.45;0.45;;;21.10;90.10;;;;;;4981632;28;20474;-56
2022/08/31 11:26:59;;;;;;;0.50;0.30;;;21.10;90.70;;;;;;4980827;28;20031;-57
2022/08/31 11:29:31;;;;;;;0.68;0.45;;;21.20;89.40;;;;;;4977684;28;20498;-55
2022/08/31 11:32:05;;;;;;;1.60;0.50;;;21.30;89.30;;;;;;4982157;28;20157;-56
2022/08/31 11:34:46;;;;;;;0.45;0.40;;;21.30;89.30;;;;;;4985340;28;20023;-57
2022/08/31 11:37:32;;;;;;;1.23;0.30;;;21.30;89.50;;;;;;4984375;28;20399;-55
2022/08/31 11:39:58;;;;;;;1.48;0.50;;;21.30;89.80;;;;;;4982021;28;20035;-58
2022/08/31 11:42:26;;;;;;;0.75;0.40;;;21.30;90.20;;;;;;4984303;28;20033;-56
2022/08/31 11:45:25;;;;;;;1.45;0.40;;;21.40;89.90;;;;;;4982508;28;20019;-57
2022/08/31 11:47:53;;;;;;;0.50;0.40;;;21.40;90.40;;;;;;4974148;28;20035;-58
2022/08/31 11:50:22;;;;;;;0.45;0.30;;;21.40;90.60;;;;;;4975995;28;20061;-57
2022/08/31 11:52:52;;;;;;;1.10;0.43;;;21.40;90.10;;;;;;4984152;28;20041;-57
2022/08/31 11:55:42;;;;;;;0.57;0.57;;;21.50;89.50;;;;;;4983009;28;20026;-59
2022/08/31 11:58:30;;;;;;;0.40;0.40;;;21.50;87.90;;;;;;4981684;28;20058;-55
2022/08/31 12:01:24;;;;;;;0.47;0.40;;;21.30;87.40;;;;;;4988604;28;20732;-59
2022/08/31 12:04:02;;;;;;;3.28;0.55;;;21.30;87.40;;;;;;4974402;28;20043;-59
2022/08/31 12:06:27;;;;;;;0.55;0.50;;;21.40;87.90;;;;;;4984047;28;20545;-58
2022/08/31 12:09:09;;;;;;;1.38;0.52;;;21.40;88.60;;;;;;4981724;28;20035;-54
2022/08/31 12:11:47;;;;;;;1.35;0.45;;;21.50;86.70;;;;;;4981138;28;20431;-57
2022/08/31 12:14:32;;;;;;;0.35;0.35;;;21.60;88.40;;;;;;4972347;28;20054;-59
2022/08/31 12:17:20;;;;;;;0.47;0.30;;;21.70;87.30;;;;;;4984267;28;20080;-58
2022/08/31 12:20:07;;;;;;;2.60;0.57;;;21.80;87.40;;;;;;4977001;28;20486;-55
2022/08/31 12:26:21;;;;;;;0.73;0.52;;;21.60;87.30;;;;;;4977100;28;20169;-56
2022/08/31 12:29:13;;;;;;;1.08;0.38;;;21.40;87.00;;;;;;4980732;28;20133;-60
2022/08/31 12:31:40;;;;;;;7.80;1.02;;;21.40;86.50;;;;;;4981959;28;20073;-60
2022/08/31 12:34:12;;;;;;;1.80;0.77;;;21.50;86.40;;;;;;4981512;28;20030;-59
2022/08/31 12:36:38;;;;;;;5.07;0.88;;;21.50;86.30;;;;;;4975485;28;20030;-60
2022/08/31 12:39:20;;;;;;;2.15;0.65;;;21.60;86.70;;;;;;4986445;28;20030;-57
2022/08/31 12:42:01;;;;;;;2.00;0.75;;;21.70;86.60;;;;;;4976680;28;20019;-60
2022/08/31 12:44:36;;;;;;;0.70;0.57;;;21.80;84.80;;;;;;4974710;28;20026;-59
2022/08/31 12:47:04;;;;;;;3.97;1.00;;;21.90;85.90;;;;;;4980550;28;20113;-58
2022/08/31 12:49:45;;;;;;;10.52;1.52;;;21.90;85.00;;;;;;4985391;28;20022;-58
2022/08/31 12:52:23;;;;;;;1.63;0.50;;;22.10;85.60;;;;;;4982579;28;20554;-59
2022/08/31 12:54:55;;;;;;;2.90;0.63;;;22.30;86.50;;;;;;4981258;28;20030;-59
2022/08/31 12:57:39;;;;;;;2.30;0.60;;;22.40;84.70;;;;;;4983138;28;20125;-58
2022/08/31 13:00:28;;;;;;;0.80;0.60;;;22.40;84.60;;;;;;4982003;28;20101;-59
2022/08/31 13:03:00;;;;;;;0.57;0.30;;;22.40;84.00;;;;;;4982329;28;20038;-56
2022/08/31 13:05:29;;;;;;;2.72;0.88;;;22.40;84.60;;;;;;4983469;28;20654;-58
2022/08/31 13:07:55;;;;;;;0.40;0.22;;;22.20;84.20;;;;;;4982351;28;20598;-54
2022/08/31 13:10:21;;;;;;;1.58;0.90;;;22.10;84.30;;;;;;4979623;28;20508;-58
2022/08/31 13:13:02;;;;;;;0.55;0.40;;;22.00;84.30;;;;;;4970988;28;20122;-56
2022/08/31 13:15:34;;;;;;;0.28;0.28;;;21.80;84.60;;;;;;4963676;28;20022;-59
2022/08/31 13:18:01;;;;;;;0.43;0.40;;;21.70;85.00;;;;;;4979272;28;20451;-58
2022/08/31 13:20:34;;;;;;;1.80;0.77;;;21.70;85.00;;;;;;4982823;28;20505;-57
2022/08/31 13:23:10;;;;;;;0.57;0.43;;;21.60;85.40;;;;;;4979356;28;20035;-57
2022/08/31 13:25:35;;;;;;;;;;;21.60;85.60;;;;;;4983236;28;20022;-56
2022/08/31 13:28:17;;;;;;;0.50;0.50;;;21.60;84.60;;;;;;4981901;28;20510;-59